Terminal Aerodrome Forecast
Issued by NWS

Home | Current Version | Previous Version | Text Only | Print | Product List | Glossary On
Versions: 1 2 3 4 5 6 7 8 9 10 11 12 13 14
135
FTUS44 KMAF 192324
TAFPEQ
TAF
KPEQ 192324Z 2000/2024 09008KT P6SM BKN100 BKN200 PROB30 2009/2012
      P6SM RA BKN040=

USA.gov is the U.S. government's official web portal to all federal, state and local government web resources and services.